sensor_id;sensor_type;location;lat;lon;timestamp;P1;durP1;ratioP1;P2;durP2;ratioP2
75379;SDS011;65641;44.714;37.756;2023-05-21T00:00:26;3.45;;;2.67;;
75379;SDS011;65641;44.714;37.756;2023-05-21T00:01:30;3.40;;;2.80;;
75379;SDS011;65641;44.714;37.756;2023-05-21T00:02:33;4.22;;;2.70;;
75379;SDS011;65641;44.714;37.756;2023-05-21T00:03:37;4.30;;;2.80;;
75379;SDS011;65641;44.714;37.756;2023-05-21T00:04:43;5.28;;;3.05;;
75379;SDS011;65641;44.714;37.756;2023-05-21T00:05:46;3.65;;;3.20;;
75379;SDS011;65641;44.714;37.756;2023-05-21T00:06:51;3.85;;;3.05;;
75379;SDS011;65641;44.714;37.756;2023-05-21T00:07:54;4.25;;;3.13;;
75379;SDS011;65641;44.714;37.756;2023-05-21T00:08:57;4.85;;;3.30;;
75379;SDS011;65641;44.714;37.756;2023-05-21T00:10:00;5.00;;;3.33;;
75379;SDS011;65641;44.714;37.756;2023-05-21T00:11:04;4.72;;;3.40;;
75379;SDS011;65641;44.714;37.756;2023-05-21T00:12:07;4.20;;;3.28;;
75379;SDS011;65641;44.714;37.756;2023-05-21T00:13:11;4.65;;;3.70;;
75379;SDS011;65641;44.714;37.756;2023-05-21T00:14:14;6.35;;;3.42;;
75379;SDS011;65641;44.714;37.756;2023-05-21T00:15:17;4.25;;;3.63;;
75379;SDS011;65641;44.714;37.756;2023-05-21T00:16:20;4.82;;;3.33;;
75379;SDS011;65641;44.714;37.756;2023-05-21T00:17:24;3.90;;;3.05;;
75379;SDS011;65641;44.714;37.756;2023-05-21T00:18:27;4.50;;;3.53;;
75379;SDS011;65641;44.714;37.756;2023-05-21T00:19:33;3.72;;;2.92;;
75379;SDS011;65641;44.714;37.756;2023-05-21T00:20:36;4.28;;;3.28;;
75379;SDS011;65641;44.714;37.756;2023-05-21T00:21:39;3.95;;;3.28;;
75379;SDS011;65641;44.714;37.756;2023-05-21T00:22:42;3.30;;;2.88;;
75379;SDS011;65641;44.714;37.756;2023-05-21T00:23:45;3.90;;;3.13;;
75379;SDS011;65641;44.714;37.756;2023-05-21T00:24:49;3.97;;;3.35;;
75379;SDS011;65641;44.714;37.756;2023-05-21T00:25:52;4.68;;;3.55;;
75379;SDS011;65641;44.714;37.756;2023-05-21T00:26:55;4.10;;;3.50;;
75379;SDS011;65641;44.714;37.756;2023-05-21T00:27:59;5.22;;;3.40;;
75379;SDS011;65641;44.714;37.756;2023-05-21T00:29:02;4.43;;;3.30;;
75379;SDS011;65641;44.714;37.756;2023-05-21T00:30:05;3.88;;;2.83;;
75379;SDS011;65641;44.714;37.756;2023-05-21T00:31:11;4.53;;;3.40;;
75379;SDS011;65641;44.714;37.756;2023-05-21T00:32:14;4.32;;;3.25;;
75379;SDS011;65641;44.714;37.756;2023-05-21T00:33:17;4.38;;;3.33;;
75379;SDS011;65641;44.714;37.756;2023-05-21T00:34:22;4.15;;;2.92;;
75379;SDS011;65641;44.714;37.756;2023-05-21T00:35:25;4.45;;;3.28;;
75379;SDS011;65641;44.714;37.756;2023-05-21T00:36:28;5.60;;;3.17;;
75379;SDS011;65641;44.714;37.756;2023-05-21T00:37:32;5.35;;;3.72;;
75379;SDS011;65641;44.714;37.756;2023-05-21T00:38:35;5.07;;;3.80;;
75379;SDS011;65641;44.714;37.756;2023-05-21T00:39:39;3.72;;;2.83;;
75379;SDS011;65641;44.714;37.756;2023-05-21T00:40:42;4.47;;;3.70;;
75379;SDS011;65641;44.714;37.756;2023-05-21T00:41:46;4.40;;;3.20;;
75379;SDS011;65641;44.714;37.756;2023-05-21T00:42:50;5.47;;;3.42;;
75379;SDS011;65641;44.714;37.756;2023-05-21T00:43:53;4.30;;;3.33;;
75379;SDS011;65641;44.714;37.756;2023-05-21T00:44:57;4.13;;;3.40;;
75379;SDS011;65641;44.714;37.756;2023-05-21T00:46:00;3.72;;;3.33;;
75379;SDS011;65641;44.714;37.756;2023-05-21T00:47:04;4.70;;;3.38;;
75379;SDS011;65641;44.714;37.756;2023-05-21T00:48:07;4.82;;;3.22;;
75379;SDS011;65641;44.714;37.756;2023-05-21T00:49:10;4.78;;;3.50;;
75379;SDS011;65641;44.714;37.756;2023-05-21T00:50:13;3.60;;;2.90;;
75379;SDS011;65641;44.714;37.756;2023-05-21T00:51:17;5.50;;;3.38;;
75379;SDS011;65641;44.714;37.756;2023-05-21T00:52:23;4.60;;;3.55;;
75379;SDS011;65641;44.714;37.756;2023-05-21T00:53:28;3.58;;;3.22;;
75379;SDS011;65641;44.714;37.756;2023-05-21T00:54:31;4.90;;;3.42;;
75379;SDS011;65641;44.714;37.756;2023-05-21T00:55:35;3.85;;;3.25;;
75379;SDS011;65641;44.714;37.756;2023-05-21T00:56:39;4.30;;;3.28;;
75379;SDS011;65641;44.714;37.756;2023-05-21T00:57:43;3.50;;;3.10;;
75379;SDS011;65641;44.714;37.756;2023-05-21T00:58:47;4.88;;;3.22;;
75379;SDS011;65641;44.714;37.756;2023-05-21T00:59:51;3.90;;;3.10;;
75379;SDS011;65641;44.714;37.756;2023-05-21T01:00:54;4.32;;;3.28;;
75379;SDS011;65641;44.714;37.756;2023-05-21T01:01:58;3.83;;;3.17;;
75379;SDS011;65641;44.714;37.756;2023-05-21T01:03:05;4.65;;;3.67;;
75379;SDS011;65641;44.714;37.756;2023-05-21T01:04:08;4.72;;;3.65;;
75379;SDS011;65641;44.714;37.756;2023-05-21T01:05:11;4.43;;;3.40;;
75379;SDS011;65641;44.714;37.756;2023-05-21T01:06:16;4.72;;;3.63;;
75379;SDS011;65641;44.714;37.756;2023-05-21T01:07:19;4.90;;;3.33;;
75379;SDS011;65641;44.714;37.756;2023-05-21T01:08:23;4.20;;;3.30;;
75379;SDS011;65641;44.714;37.756;2023-05-21T01:09:26;4.10;;;3.30;;
75379;SDS011;65641;44.714;37.756;2023-05-21T01:10:29;4.65;;;3.75;;
75379;SDS011;65641;44.714;37.756;2023-05-21T01:11:36;4.30;;;3.35;;
75379;SDS011;65641;44.714;37.756;2023-05-21T01:12:42;4.75;;;3.30;;
75379;SDS011;65641;44.714;37.756;2023-05-21T01:13:46;4.95;;;3.88;;
75379;SDS011;65641;44.714;37.756;2023-05-21T01:14:50;4.18;;;3.60;;
75379;SDS011;65641;44.714;37.756;2023-05-21T01:15:53;4.43;;;3.70;;
75379;SDS011;65641;44.714;37.756;2023-05-21T01:16:59;4.57;;;3.22;;
75379;SDS011;65641;44.714;37.756;2023-05-21T01:18:03;5.65;;;3.38;;
75379;SDS011;65641;44.714;37.756;2023-05-21T01:19:08;4.40;;;3.42;;
75379;SDS011;65641;44.714;37.756;2023-05-21T01:20:15;4.60;;;3.70;;
75379;SDS011;65641;44.714;37.756;2023-05-21T01:21:21;5.18;;;3.72;;
75379;SDS011;65641;44.714;37.756;2023-05-21T01:22:30;5.05;;;3.50;;
75379;SDS011;65641;44.714;37.756;2023-05-21T01:23:35;4.13;;;3.33;;
75379;SDS011;65641;44.714;37.756;2023-05-21T01:24:38;4.60;;;3.20;;
75379;SDS011;65641;44.714;37.756;2023-05-21T01:25:43;4.35;;;3.50;;
75379;SDS011;65641;44.714;37.756;2023-05-21T01:26:47;5.18;;;3.63;;
75379;SDS011;65641;44.714;37.756;2023-05-21T01:27:50;4.22;;;3.33;;
75379;SDS011;65641;44.714;37.756;2023-05-21T01:28:54;4.70;;;3.80;;
75379;SDS011;65641;44.714;37.756;2023-05-21T01:29:57;4.82;;;3.70;;
75379;SDS011;65641;44.714;37.756;2023-05-21T01:31:03;4.72;;;3.72;;
75379;SDS011;65641;44.714;37.756;2023-05-21T01:33:45;5.55;;;3.97;;
75379;SDS011;65641;44.714;37.756;2023-05-21T01:36:18;4.85;;;3.13;;
75379;SDS011;65641;44.714;37.756;2023-05-21T01:37:35;5.43;;;3.80;;
75379;SDS011;65641;44.714;37.756;2023-05-21T01:38:46;6.32;;;3.58;;
75379;SDS011;65641;44.714;37.756;2023-05-21T01:39:56;5.53;;;3.88;;
75379;SDS011;65641;44.714;37.756;2023-05-21T01:41:15;5.38;;;3.15;;
75379;SDS011;65641;44.714;37.756;2023-05-21T01:42:19;4.93;;;3.80;;
75379;SDS011;65641;44.714;37.756;2023-05-21T01:43:26;4.90;;;4.00;;
75379;SDS011;65641;44.714;37.756;2023-05-21T01:44:32;4.10;;;3.22;;
75379;SDS011;65641;44.714;37.756;2023-05-21T01:45:38;4.63;;;3.42;;
75379;SDS011;65641;44.714;37.756;2023-05-21T01:46:43;4.90;;;3.97;;
75379;SDS011;65641;44.714;37.756;2023-05-21T01:47:47;4.05;;;3.35;;
75379;SDS011;65641;44.714;37.756;2023-05-21T01:48:53;4.70;;;3.58;;
75379;SDS011;65641;44.714;37.756;2023-05-21T01:49:58;4.22;;;3.65;;
75379;SDS011;65641;44.714;37.756;2023-05-21T01:51:03;4.60;;;3.92;;
75379;SDS011;65641;44.714;37.756;2023-05-21T01:52:07;4.82;;;3.80;;
75379;SDS011;65641;44.714;37.756;2023-05-21T01:53:10;4.70;;;3.72;;
75379;SDS011;65641;44.714;37.756;2023-05-21T01:54:13;4.57;;;3.95;;
75379;SDS011;65641;44.714;37.756;2023-05-21T01:55:18;5.60;;;3.92;;
75379;SDS011;65641;44.714;37.756;2023-05-21T01:56:26;5.10;;;3.75;;
75379;SDS011;65641;44.714;37.756;2023-05-21T01:57:29;5.15;;;3.90;;
75379;SDS011;65641;44.714;37.756;2023-05-21T01:58:32;6.55;;;3.95;;
75379;SDS011;65641;44.714;37.756;2023-05-21T01:59:35;5.15;;;4.40;;
75379;SDS011;65641;44.714;37.756;2023-05-21T02:00:38;6.03;;;4.20;;
75379;SDS011;65641;44.714;37.756;2023-05-21T02:01:41;5.93;;;3.58;;
75379;SDS011;65641;44.714;37.756;2023-05-21T02:02:45;4.85;;;3.80;;
75379;SDS011;65641;44.714;37.756;2023-05-21T02:03:48;4.55;;;3.75;;
75379;SDS011;65641;44.714;37.756;2023-05-21T02:04:52;6.13;;;4.10;;
75379;SDS011;65641;44.714;37.756;2023-05-21T02:05:55;4.50;;;3.67;;
75379;SDS011;65641;44.714;37.756;2023-05-21T02:06:58;4.68;;;4.03;;
75379;SDS011;65641;44.714;37.756;2023-05-21T02:08:01;5.53;;;3.83;;
75379;SDS011;65641;44.714;37.756;2023-05-21T02:09:05;5.50;;;4.03;;
75379;SDS011;65641;44.714;37.756;2023-05-21T02:10:08;5.25;;;4.10;;
75379;SDS011;65641;44.714;37.756;2023-05-21T02:11:12;5.30;;;4.20;;
75379;SDS011;65641;44.714;37.756;2023-05-21T02:12:15;4.80;;;3.75;;
75379;SDS011;65641;44.714;37.756;2023-05-21T02:13:18;4.57;;;3.50;;
75379;SDS011;65641;44.714;37.756;2023-05-21T02:14:27;4.70;;;3.80;;
75379;SDS011;65641;44.714;37.756;2023-05-21T02:15:31;4.85;;;3.85;;
75379;SDS011;65641;44.714;37.756;2023-05-21T02:16:36;5.80;;;3.53;;
75379;SDS011;65641;44.714;37.756;2023-05-21T02:17:39;4.88;;;3.30;;
75379;SDS011;65641;44.714;37.756;2023-05-21T02:18:45;5.28;;;3.42;;
75379;SDS011;65641;44.714;37.756;2023-05-21T02:19:49;5.13;;;3.70;;
75379;SDS011;65641;44.714;37.756;2023-05-21T02:20:52;4.82;;;3.72;;
75379;SDS011;65641;44.714;37.756;2023-05-21T02:21:55;4.93;;;3.88;;
75379;SDS011;65641;44.714;37.756;2023-05-21T02:22:58;5.05;;;3.85;;
75379;SDS011;65641;44.714;37.756;2023-05-21T02:24:01;6.05;;;4.53;;
75379;SDS011;65641;44.714;37.756;2023-05-21T02:25:04;4.75;;;4.20;;
75379;SDS011;65641;44.714;37.756;2023-05-21T02:26:09;5.40;;;4.20;;
75379;SDS011;65641;44.714;37.756;2023-05-21T02:27:12;5.93;;;4.18;;
75379;SDS011;65641;44.714;37.756;2023-05-21T02:28:14;6.28;;;4.10;;
75379;SDS011;65641;44.714;37.756;2023-05-21T02:29:17;5.75;;;4.18;;
75379;SDS011;65641;44.714;37.756;2023-05-21T02:30:20;5.38;;;4.22;;
75379;SDS011;65641;44.714;37.756;2023-05-21T02:31:23;5.55;;;4.63;;
75379;SDS011;65641;44.714;37.756;2023-05-21T02:32:26;5.97;;;4.22;;
75379;SDS011;65641;44.714;37.756;2023-05-21T02:33:29;6.35;;;4.47;;
75379;SDS011;65641;44.714;37.756;2023-05-21T02:34:32;6.45;;;4.50;;
75379;SDS011;65641;44.714;37.756;2023-05-21T02:35:37;7.05;;;4.13;;
75379;SDS011;65641;44.714;37.756;2023-05-21T02:36:40;5.40;;;3.83;;
75379;SDS011;65641;44.714;37.756;2023-05-21T02:37:44;5.57;;;4.43;;
75379;SDS011;65641;44.714;37.756;2023-05-21T02:38:49;6.45;;;4.80;;
75379;SDS011;65641;44.714;37.756;2023-05-21T02:39:52;5.63;;;4.60;;
75379;SDS011;65641;44.714;37.756;2023-05-21T02:40:56;9.75;;;4.85;;
75379;SDS011;65641;44.714;37.756;2023-05-21T02:41:59;5.72;;;4.40;;
75379;SDS011;65641;44.714;37.756;2023-05-21T02:43:02;6.35;;;4.50;;
75379;SDS011;65641;44.714;37.756;2023-05-21T02:44:06;6.85;;;5.03;;
75379;SDS011;65641;44.714;37.756;2023-05-21T02:45:09;6.13;;;4.55;;
75379;SDS011;65641;44.714;37.756;2023-05-21T02:46:15;5.65;;;4.50;;
75379;SDS011;65641;44.714;37.756;2023-05-21T02:47:19;6.15;;;4.70;;
75379;SDS011;65641;44.714;37.756;2023-05-21T02:48:25;5.85;;;5.10;;
75379;SDS011;65641;44.714;37.756;2023-05-21T02:49:27;7.20;;;4.82;;
75379;SDS011;65641;44.714;37.756;2023-05-21T02:50:30;5.90;;;4.25;;
75379;SDS011;65641;44.714;37.756;2023-05-21T02:51:33;7.72;;;4.60;;
75379;SDS011;65641;44.714;37.756;2023-05-21T02:52:36;5.13;;;4.63;;
75379;SDS011;65641;44.714;37.756;2023-05-21T02:53:39;6.78;;;4.80;;
75379;SDS011;65641;44.714;37.756;2023-05-21T02:54:43;6.38;;;5.13;;
75379;SDS011;65641;44.714;37.756;2023-05-21T02:55:47;6.50;;;4.70;;
75379;SDS011;65641;44.714;37.756;2023-05-21T02:56:50;6.53;;;4.72;;
75379;SDS011;65641;44.714;37.756;2023-05-21T02:57:53;6.20;;;5.00;;
75379;SDS011;65641;44.714;37.756;2023-05-21T02:58:56;5.60;;;4.65;;
75379;SDS011;65641;44.714;37.756;2023-05-21T02:59:59;6.38;;;4.47;;
75379;SDS011;65641;44.714;37.756;2023-05-21T03:01:05;6.15;;;4.28;;
75379;SDS011;65641;44.714;37.756;2023-05-21T03:02:08;6.03;;;4.88;;
75379;SDS011;65641;44.714;37.756;2023-05-21T03:03:11;6.22;;;4.75;;
75379;SDS011;65641;44.714;37.756;2023-05-21T03:04:15;6.88;;;4.93;;
75379;SDS011;65641;44.714;37.756;2023-05-21T03:05:18;6.10;;;4.28;;
75379;SDS011;65641;44.714;37.756;2023-05-21T03:06:21;5.25;;;4.57;;
75379;SDS011;65641;44.714;37.756;2023-05-21T03:07:24;6.25;;;4.80;;
75379;SDS011;65641;44.714;37.756;2023-05-21T03:08:28;6.93;;;5.20;;
75379;SDS011;65641;44.714;37.756;2023-05-21T03:09:30;8.25;;;5.50;;
75379;SDS011;65641;44.714;37.756;2023-05-21T03:10:34;7.13;;;4.93;;
75379;SDS011;65641;44.714;37.756;2023-05-21T03:11:37;6.50;;;4.40;;
75379;SDS011;65641;44.714;37.756;2023-05-21T03:12:40;7.05;;;4.70;;
75379;SDS011;65641;44.714;37.756;2023-05-21T03:13:43;5.50;;;4.55;;
75379;SDS011;65641;44.714;37.756;2023-05-21T03:14:47;6.70;;;4.22;;
75379;SDS011;65641;44.714;37.756;2023-05-21T03:15:54;6.18;;;4.32;;
75379;SDS011;65641;44.714;37.756;2023-05-21T03:16:57;6.47;;;4.30;;
75379;SDS011;65641;44.714;37.756;2023-05-21T03:18:02;4.80;;;4.15;;
75379;SDS011;65641;44.714;37.756;2023-05-21T03:19:05;5.55;;;4.13;;
75379;SDS011;65641;44.714;37.756;2023-05-21T03:20:12;6.68;;;4.05;;
75379;SDS011;65641;44.714;37.756;2023-05-21T03:21:17;5.18;;;4.22;;
75379;SDS011;65641;44.714;37.756;2023-05-21T03:22:23;6.60;;;4.50;;
75379;SDS011;65641;44.714;37.756;2023-05-21T03:23:26;5.43;;;4.13;;
75379;SDS011;65641;44.714;37.756;2023-05-21T03:24:29;5.30;;;4.43;;
75379;SDS011;65641;44.714;37.756;2023-05-21T03:25:34;5.45;;;3.92;;
75379;SDS011;65641;44.714;37.756;2023-05-21T03:26:38;5.13;;;3.78;;
75379;SDS011;65641;44.714;37.756;2023-05-21T03:27:42;6.93;;;3.95;;
75379;SDS011;65641;44.714;37.756;2023-05-21T03:29:00;6.60;;;4.03;;
75379;SDS011;65641;44.714;37.756;2023-05-21T03:30:03;5.32;;;4.22;;
75379;SDS011;65641;44.714;37.756;2023-05-21T03:31:15;5.07;;;3.30;;
75379;SDS011;65641;44.714;37.756;2023-05-21T03:32:25;6.35;;;4.20;;
75379;SDS011;65641;44.714;37.756;2023-05-21T03:33:28;6.10;;;4.10;;
75379;SDS011;65641;44.714;37.756;2023-05-21T03:34:33;4.53;;;3.67;;
75379;SDS011;65641;44.714;37.756;2023-05-21T03:35:37;5.53;;;3.85;;
75379;SDS011;65641;44.714;37.756;2023-05-21T03:36:40;5.88;;;4.03;;
75379;SDS011;65641;44.714;37.756;2023-05-21T03:37:43;6.55;;;3.83;;
75379;SDS011;65641;44.714;37.756;2023-05-21T03:38:47;6.18;;;4.18;;
75379;SDS011;65641;44.714;37.756;2023-05-21T03:39:50;4.90;;;4.13;;
75379;SDS011;65641;44.714;37.756;2023-05-21T03:40:54;4.53;;;3.78;;
75379;SDS011;65641;44.714;37.756;2023-05-21T03:41:57;4.43;;;3.35;;
75379;SDS011;65641;44.714;37.756;2023-05-21T03:43:09;6.20;;;3.85;;
75379;SDS011;65641;44.714;37.756;2023-05-21T03:44:12;4.50;;;3.22;;
75379;SDS011;65641;44.714;37.756;2023-05-21T03:45:24;4.80;;;3.42;;
75379;SDS011;65641;44.714;37.756;2023-05-21T03:46:49;6.82;;;4.20;;
75379;SDS011;65641;44.714;37.756;2023-05-21T03:47:58;5.93;;;3.10;;
75379;SDS011;65641;44.714;37.756;2023-05-21T03:49:04;4.43;;;3.03;;
75379;SDS011;65641;44.714;37.756;2023-05-21T03:50:09;4.85;;;3.42;;
75379;SDS011;65641;44.714;37.756;2023-05-21T03:51:13;3.83;;;3.33;;
75379;SDS011;65641;44.714;37.756;2023-05-21T03:52:17;5.93;;;3.88;;
75379;SDS011;65641;44.714;37.756;2023-05-21T03:53:20;4.18;;;3.13;;
75379;SDS011;65641;44.714;37.756;2023-05-21T03:54:23;4.43;;;3.33;;
75379;SDS011;65641;44.714;37.756;2023-05-21T03:55:29;4.53;;;3.53;;
75379;SDS011;65641;44.714;37.756;2023-05-21T03:56:32;5.13;;;3.30;;
75379;SDS011;65641;44.714;37.756;2023-05-21T03:57:35;4.45;;;3.67;;
75379;SDS011;65641;44.714;37.756;2023-05-21T03:58:39;4.55;;;3.50;;
75379;SDS011;65641;44.714;37.756;2023-05-21T03:59:42;5.68;;;3.58;;
75379;SDS011;65641;44.714;37.756;2023-05-21T04:00:46;5.85;;;3.60;;
75379;SDS011;65641;44.714;37.756;2023-05-21T04:01:49;4.95;;;3.80;;
75379;SDS011;65641;44.714;37.756;2023-05-21T04:02:52;5.88;;;3.17;;
75379;SDS011;65641;44.714;37.756;2023-05-21T04:03:55;5.00;;;3.42;;
75379;SDS011;65641;44.714;37.756;2023-05-21T04:04:59;5.28;;;3.17;;
75379;SDS011;65641;44.714;37.756;2023-05-21T04:06:05;6.63;;;3.38;;
75379;SDS011;65641;44.714;37.756;2023-05-21T04:07:08;3.90;;;3.20;;
75379;SDS011;65641;44.714;37.756;2023-05-21T04:08:15;5.13;;;4.00;;
75379;SDS011;65641;44.714;37.756;2023-05-21T04:09:18;3.83;;;3.25;;
75379;SDS011;65641;44.714;37.756;2023-05-21T04:10:22;5.20;;;3.40;;
75379;SDS011;65641;44.714;37.756;2023-05-21T04:11:25;4.70;;;3.03;;
75379;SDS011;65641;44.714;37.756;2023-05-21T04:12:28;4.45;;;3.33;;
75379;SDS011;65641;44.714;37.756;2023-05-21T04:13:31;4.28;;;3.20;;
75379;SDS011;65641;44.714;37.756;2023-05-21T04:14:35;3.67;;;3.08;;
75379;SDS011;65641;44.714;37.756;2023-05-21T04:15:38;3.95;;;2.78;;
75379;SDS011;65641;44.714;37.756;2023-05-21T04:16:42;4.88;;;3.40;;
75379;SDS011;65641;44.714;37.756;2023-05-21T04:17:45;4.40;;;3.30;;
75379;SDS011;65641;44.714;37.756;2023-05-21T04:18:48;4.40;;;3.80;;
75379;SDS011;65641;44.714;37.756;2023-05-21T04:19:51;4.30;;;3.20;;
75379;SDS011;65641;44.714;37.756;2023-05-21T04:20:54;3.90;;;2.53;;
75379;SDS011;65641;44.714;37.756;2023-05-21T04:21:57;5.55;;;3.50;;
75379;SDS011;65641;44.714;37.756;2023-05-21T04:23:00;4.22;;;3.13;;
75379;SDS011;65641;44.714;37.756;2023-05-21T04:24:05;3.80;;;2.97;;
75379;SDS011;65641;44.714;37.756;2023-05-21T04:25:31;5.07;;;2.92;;
75379;SDS011;65641;44.714;37.756;2023-05-21T04:26:34;3.72;;;2.85;;
75379;SDS011;65641;44.714;37.756;2023-05-21T04:27:38;4.20;;;3.05;;
75379;SDS011;65641;44.714;37.756;2023-05-21T04:28:42;4.05;;;2.72;;
75379;SDS011;65641;44.714;37.756;2023-05-21T04:29:44;3.63;;;3.15;;
75379;SDS011;65641;44.714;37.756;2023-05-21T04:30:50;3.20;;;2.60;;
75379;SDS011;65641;44.714;37.756;2023-05-21T04:31:54;3.85;;;3.05;;
75379;SDS011;65641;44.714;37.756;2023-05-21T04:32:57;4.05;;;3.28;;
75379;SDS011;65641;44.714;37.756;2023-05-21T04:34:01;3.00;;;2.70;;
75379;SDS011;65641;44.714;37.756;2023-05-21T04:35:05;4.72;;;2.78;;
75379;SDS011;65641;44.714;37.756;2023-05-21T04:36:08;3.42;;;2.95;;
75379;SDS011;65641;44.714;37.756;2023-05-21T04:37:12;3.45;;;2.67;;
75379;SDS011;65641;44.714;37.756;2023-05-21T04:38:16;3.53;;;3.03;;
75379;SDS011;65641;44.714;37.756;2023-05-21T04:39:22;3.80;;;2.95;;
75379;SDS011;65641;44.714;37.756;2023-05-21T04:40:26;4.03;;;3.08;;
75379;SDS011;65641;44.714;37.756;2023-05-21T04:41:29;4.78;;;3.58;;
75379;SDS011;65641;44.714;37.756;2023-05-21T04:42:31;4.10;;;3.05;;
75379;SDS011;65641;44.714;37.756;2023-05-21T04:43:35;3.28;;;2.60;;
75379;SDS011;65641;44.714;37.756;2023-05-21T04:44:39;4.03;;;2.83;;
75379;SDS011;65641;44.714;37.756;2023-05-21T04:45:46;3.22;;;2.42;;
75379;SDS011;65641;44.714;37.756;2023-05-21T04:46:49;5.03;;;3.28;;
75379;SDS011;65641;44.714;37.756;2023-05-21T04:47:52;3.80;;;2.97;;
75379;SDS011;65641;44.714;37.756;2023-05-21T04:48:55;3.92;;;3.10;;
75379;SDS011;65641;44.714;37.756;2023-05-21T04:49:59;3.88;;;2.72;;
75379;SDS011;65641;44.714;37.756;2023-05-21T04:51:04;3.25;;;2.92;;
75379;SDS011;65641;44.714;37.756;2023-05-21T04:52:07;4.25;;;2.95;;
75379;SDS011;65641;44.714;37.756;2023-05-21T04:53:10;4.00;;;2.92;;
75379;SDS011;65641;44.714;37.756;2023-05-21T04:54:13;3.60;;;2.40;;
75379;SDS011;65641;44.714;37.756;2023-05-21T04:55:16;4.30;;;2.78;;
75379;SDS011;65641;44.714;37.756;2023-05-21T04:56:20;3.72;;;2.70;;
75379;SDS011;65641;44.714;37.756;2023-05-21T04:57:29;4.10;;;2.53;;
75379;SDS011;65641;44.714;37.756;2023-05-21T04:58:33;3.30;;;2.20;;
75379;SDS011;65641;44.714;37.756;2023-05-21T04:59:36;3.88;;;2.78;;
75379;SDS011;65641;44.714;37.756;2023-05-21T05:00:39;3.53;;;2.47;;
75379;SDS011;65641;44.714;37.756;2023-05-21T05:01:43;3.67;;;2.65;;
75379;SDS011;65641;44.714;37.756;2023-05-21T05:02:46;3.63;;;2.38;;
75379;SDS011;65641;44.714;37.756;2023-05-21T05:03:50;3.65;;;2.53;;
75379;SDS011;65641;44.714;37.756;2023-05-21T05:04:52;3.75;;;2.70;;
75379;SDS011;65641;44.714;37.756;2023-05-21T05:05:55;5.03;;;2.85;;
75379;SDS011;65641;44.714;37.756;2023-05-21T05:06:59;4.32;;;3.08;;
75379;SDS011;65641;44.714;37.756;2023-05-21T05:08:02;4.78;;;3.28;;
75379;SDS011;65641;44.714;37.756;2023-05-21T05:09:06;4.53;;;2.80;;
75379;SDS011;65641;44.714;37.756;2023-05-21T05:10:10;4.32;;;2.55;;
75379;SDS011;65641;44.714;37.756;2023-05-21T05:11:13;4.20;;;2.50;;
75379;SDS011;65641;44.714;37.756;2023-05-21T05:12:16;4.78;;;2.58;;
75379;SDS011;65641;44.714;37.756;2023-05-21T05:13:19;3.72;;;2.42;;
75379;SDS011;65641;44.714;37.756;2023-05-21T05:14:23;3.97;;;2.83;;
75379;SDS011;65641;44.714;37.756;2023-05-21T05:15:26;4.18;;;3.20;;
75379;SDS011;65641;44.714;37.756;2023-05-21T05:16:29;6.10;;;3.33;;
75379;SDS011;65641;44.714;37.756;2023-05-21T05:17:36;4.22;;;2.72;;
75379;SDS011;65641;44.714;37.756;2023-05-21T05:18:41;3.67;;;2.72;;
75379;SDS011;65641;44.714;37.756;2023-05-21T05:19:45;3.47;;;2.45;;
75379;SDS011;65641;44.714;37.756;2023-05-21T05:20:48;5.13;;;2.75;;
75379;SDS011;65641;44.714;37.756;2023-05-21T05:21:51;4.60;;;2.58;;
75379;SDS011;65641;44.714;37.756;2023-05-21T05:22:55;3.83;;;2.83;;
75379;SDS011;65641;44.714;37.756;2023-05-21T05:23:58;4.10;;;3.00;;
75379;SDS011;65641;44.714;37.756;2023-05-21T05:25:04;3.67;;;2.50;;
75379;SDS011;65641;44.714;37.756;2023-05-21T05:26:07;3.38;;;2.70;;
75379;SDS011;65641;44.714;37.756;2023-05-21T05:27:11;4.60;;;2.63;;
75379;SDS011;65641;44.714;37.756;2023-05-21T05:28:14;3.50;;;2.88;;
75379;SDS011;65641;44.714;37.756;2023-05-21T05:29:17;4.95;;;2.83;;
75379;SDS011;65641;44.714;37.756;2023-05-21T05:30:21;4.32;;;2.50;;
75379;SDS011;65641;44.714;37.756;2023-05-21T05:31:24;4.50;;;2.35;;
75379;SDS011;65641;44.714;37.756;2023-05-21T05:32:27;3.67;;;2.25;;
75379;SDS011;65641;44.714;37.756;2023-05-21T05:33:30;4.93;;;2.75;;
75379;SDS011;65641;44.714;37.756;2023-05-21T05:34:33;3.70;;;2.97;;
75379;SDS011;65641;44.714;37.756;2023-05-21T05:35:37;4.88;;;2.67;;
75379;SDS011;65641;44.714;37.756;2023-05-21T05:36:39;4.10;;;2.58;;
75379;SDS011;65641;44.714;37.756;2023-05-21T05:37:43;5.57;;;2.63;;
75379;SDS011;65641;44.714;37.756;2023-05-21T05:38:46;4.30;;;2.65;;
75379;SDS011;65641;44.714;37.756;2023-05-21T05:39:52;3.30;;;2.60;;
75379;SDS011;65641;44.714;37.756;2023-05-21T05:40:55;4.30;;;2.88;;
75379;SDS011;65641;44.714;37.756;2023-05-21T05:41:58;4.15;;;2.83;;
75379;SDS011;65641;44.714;37.756;2023-05-21T05:43:04;4.10;;;2.53;;
75379;SDS011;65641;44.714;37.756;2023-05-21T05:44:12;3.92;;;2.42;;
75379;SDS011;65641;44.714;37.756;2023-05-21T05:45:19;4.28;;;2.20;;
75379;SDS011;65641;44.714;37.756;2023-05-21T05:46:22;3.78;;;2.45;;
75379;SDS011;65641;44.714;37.756;2023-05-21T05:47:28;4.45;;;2.33;;
75379;SDS011;65641;44.714;37.756;2023-05-21T05:48:35;3.78;;;2.45;;
75379;SDS011;65641;44.714;37.756;2023-05-21T05:49:37;3.83;;;2.65;;
75379;SDS011;65641;44.714;37.756;2023-05-21T05:50:41;4.45;;;2.35;;
75379;SDS011;65641;44.714;37.756;2023-05-21T05:51:44;3.38;;;2.05;;
75379;SDS011;65641;44.714;37.756;2023-05-21T05:52:51;5.15;;;2.80;;
75379;SDS011;65641;44.714;37.756;2023-05-21T05:53:54;3.63;;;2.50;;
75379;SDS011;65641;44.714;37.756;2023-05-21T05:54:58;3.92;;;2.40;;
75379;SDS011;65641;44.714;37.756;2023-05-21T05:56:01;3.65;;;2.47;;
75379;SDS011;65641;44.714;37.756;2023-05-21T05:57:05;4.35;;;2.30;;
75379;SDS011;65641;44.714;37.756;2023-05-21T05:59:36;3.67;;;2.40;;
75379;SDS011;65641;44.714;37.756;2023-05-21T06:00:39;4.60;;;2.67;;
75379;SDS011;65641;44.714;37.756;2023-05-21T06:01:42;3.22;;;1.90;;
75379;SDS011;65641;44.714;37.756;2023-05-21T06:02:45;4.40;;;2.60;;
75379;SDS011;65641;44.714;37.756;2023-05-21T06:03:49;5.10;;;2.78;;
75379;SDS011;65641;44.714;37.756;2023-05-21T06:04:54;3.97;;;2.53;;
75379;SDS011;65641;44.714;37.756;2023-05-21T06:05:57;4.78;;;2.58;;
75379;SDS011;65641;44.714;37.756;2023-05-21T06:07:02;5.60;;;2.63;;
75379;SDS011;65641;44.714;37.756;2023-05-21T06:08:05;4.80;;;2.80;;
75379;SDS011;65641;44.714;37.756;2023-05-21T06:09:08;4.03;;;2.70;;
75379;SDS011;65641;44.714;37.756;2023-05-21T06:10:11;3.85;;;2.40;;
75379;SDS011;65641;44.714;37.756;2023-05-21T06:11:16;3.47;;;2.60;;
75379;SDS011;65641;44.714;37.756;2023-05-21T06:12:20;4.32;;;2.47;;
75379;SDS011;65641;44.714;37.756;2023-05-21T06:13:23;5.57;;;2.72;;
75379;SDS011;65641;44.714;37.756;2023-05-21T06:14:26;3.67;;;2.40;;
75379;SDS011;65641;44.714;37.756;2023-05-21T06:15:29;4.03;;;2.40;;
75379;SDS011;65641;44.714;37.756;2023-05-21T06:16:32;4.68;;;2.85;;
75379;SDS011;65641;44.714;37.756;2023-05-21T06:17:36;4.72;;;2.85;;
75379;SDS011;65641;44.714;37.756;2023-05-21T06:18:39;3.70;;;2.25;;
75379;SDS011;65641;44.714;37.756;2023-05-21T06:19:42;3.88;;;2.53;;
75379;SDS011;65641;44.714;37.756;2023-05-21T06:20:46;3.67;;;2.38;;
75379;SDS011;65641;44.714;37.756;2023-05-21T06:21:49;4.72;;;2.38;;
75379;SDS011;65641;44.714;37.756;2023-05-21T06:22:52;5.05;;;2.78;;
75379;SDS011;65641;44.714;37.756;2023-05-21T06:23:55;2.80;;;2.00;;
75379;SDS011;65641;44.714;37.756;2023-05-21T06:24:58;5.88;;;2.60;;